Αρχική σελίδα
METAR-TAF:

METAR-TAF

Αεροδρόμια :

Alice Springs, Αυστραλία

γεωγραφικό πλάτος: 23-48S, γεωγραφικό μήκος: 133-53E, υψόμετρο: 545 μ

Παρών καιρός

Η αναφορά έγινε 2 ώρες και 14 λεπτά πριν, στις 20:30 UTC
Άνεμος 5 kt από Δ
Θερμοκρασία 8°C
Υγρασία 36%
Πίεση 1019 hPa
Ορατότητα 10 χλμ και άνω

METAR: YBAS 252030Z AUTO 28005KT 9999 // NCD 08/M06 Q1019 RF00.0/000.0 PRESENT WEATHER SENSOR US

Χρόνος: 08:14 (22:44 UTC)

Πρόγνωση Καιρού

Η αναφορά έγινε 5 ώρες και 38 λεπτά πριν, στις 17:06 UTC
Η πρόγνωση ισχύει από τις 25 στις 18 UTC έως τις 26 στις 18 UTC
Άνεμος 4 kt από Δ/BΔ
Ορατότητα 10 χλμ και άνω
Δεν υπάρχουν νέφη με βάση κάτω από τα 1500 μ. και δεν υπάρχουν νέφη σωρειτομελανίτες.
Από 26 στις 0000 UTC
Άνεμος 8 kt από Α/BA
Ορατότητα 10 χλμ και άνω
Δεν υπάρχουν νέφη με βάση κάτω από τα 1500 μ. και δεν υπάρχουν νέφη σωρειτομελανίτες.

TAF: YBAS 251706Z 2518/2618 30004KT CAVOK FM260000 07008KT CAVOK

Μετεωρολογικές αναφορές και προγνώσεις για περισσότερα από 4000 αεροδρόμια (δελτία METAR και TAF).

Οι διαθέσιμοι σταθμοί απεικονίζονται στο χάρτη με κίτρινες και κόκκινες κουκκίδες.

Μετακινήστε το ποντίκι πάνω από τις κουκκίδες για να δείτε το όνομα του σταθμού.

Στη συνέχεια, κάντε κλικ για να δείτε τις μετεωρολογικές αναφορές και τις προγνώσεις καιρού.

Για να αλλάξετε το χάρτη: κάντε κλικ στα πράσινα κουμπιά με τον μαύρο σταυρό για να ζουμάρετε, στο πράσινο κουμπί με την παύλα για να αφαιρέσετε το ζουμ ή στα πράσινα βέλη για να αντιπαραβάλλετε χάρτες.


METAR-TAF: